Latest Coastal Weather Observations for Merimbula

IDN60701

Issued at 7:51 am EDT Tuesday 24 January 2017 (issued every 10 minutes, with the page automatically refreshed every 10 minutes)

About coastal observations | Map of coastal stations | Coastal observations for NSW | Marine services | Other Formats
Station Details ID: 069147 Name: MERIMBULA AIRPORT AWS Lat: -36.91 Lon: 149.90 Height: 1.5 m
Data from the previous 72 hours. | See also: Recent months at Merimbula
Date/Time
EDT
Temp
°C
Wind Pressure Rain since
9am
mm
Weather Cloud Vis
km
Sea
Height
m
Swell
Dir  Spd
kts
Gust
kts
hPa Trend Height
m
Period
s
Dir
24/07:30am 23.8 ESE 9 12 1002.6 - 0.0 - - - - - - -
24/07:00am 23.7 ESE 1 4 1002.2 - 0.0 - - - - - - -
24/06:30am 23.3 SSE 3 6 1001.1 - 0.0 - - - - - - -
24/06:00am 22.7 CALM 0 0 1000.5 - 0.0 - - - - - - -
24/05:30am 21.8 CALM 0 0 1000.9 - 0.0 - - - - - - -
24/05:00am 22.0 CALM 0 0 1000.9 - 0.0 - - - - - - -
24/04:30am 21.8 CALM 0 0 1000.9 - 0.0 - - - - - - -
24/04:00am 22.1 CALM 0 0 1001.0 - 0.0 - - - - - - -
24/03:30am 22.1 CALM 0 0 1000.9 - 0.0 - - - - - - -
24/03:00am 22.1 CALM 0 0 1000.9 - 0.0 - - - - - - -
24/02:30am 22.2 CALM 0 0 1001.2 - 0.0 - - - - - - -
24/02:00am 22.2 CALM 0 0 1001.4 - 0.0 - - - - - - -
24/01:30am 22.2 CALM 0 0 1001.4 - 0.0 - - - - - - -
24/01:00am 22.4 CALM 0 0 1001.8 - 0.0 - - - - - - -
24/12:30am 22.4 CALM 0 0 1002.0 - 0.0 - - - - - - -
24/12:00am 22.5 CALM 0 0 1002.5 - 0.0 - - - - - - -
 
Date/Time
EDT
Temp
°C
Wind Pressure Rain since
9am
mm
Weather Cloud Vis
km
Sea
Height
m
Swell
Dir  Spd
kts
Gust
kts
hPa Trend Height
m
Period
s
Dir
23/11:30pm 22.7 CALM 0 0 1002.6 - 0.0 - - - - - - -
23/11:00pm 22.9 WSW 3 5 1003.3 - 0.0 - - - - - - -
23/10:30pm 23.1 N 1 4 1003.5 - 0.0 - - - - - - -
23/10:00pm 23.4 NE 2 7 1004.1 - 0.0 - - - - - - -
23/09:30pm 23.4 CALM 0 0 1004.5 - 0.0 - - - - - - -
23/09:00pm 23.7 CALM 0 0 1004.5 - 0.0 - - - - - - -
23/08:30pm 23.9 S 1 5 1004.4 - 0.0 - - - - - - -
23/08:00pm 24.5 SSW 4 8 1004.5 - 0.0 - - - - - - -
23/07:30pm 25.0 CALM 0 3 1003.9 - 0.0 - - - - - - -
23/07:00pm 25.3 ENE 7 10 1003.7 - 0.0 - - - - - - -
23/06:30pm 25.2 NNE 7 11 1003.7 - 0.0 - - - - - - -
23/06:00pm 25.8 NE 9 16 1003.5 - 0.0 - - - - - - -
23/05:30pm 25.9 NE 12 21 1003.3 - 0.0 - - - - - - -
23/05:00pm 26.6 NE 13 21 1003.6 - 0.0 - - - - - - -
23/04:30pm 26.4 NE 15 25 1003.9 - 0.0 - - - - - - -
23/04:28pm 26.8 NE 15 25 1003.9 - 0.0 - - - - - - -
23/04:00pm 27.5 NE 13 24 1004.3 - 0.0 - - - - - - -
23/03:30pm 26.9 NE 11 19 1004.8 - 0.0 - - - - - - -
23/03:00pm 27.2 NE 13 21 1005.2 - 0.0 - - - - - - -
23/02:30pm 27.6 NE 13 22 1005.3 - 0.0 - - - - - - -
23/02:00pm 27.5 NE 14 20 1005.9 - 0.0 - - - - - - -
23/01:30pm 27.5 NE 12 19 1006.5 - 0.0 - - - - - - -
23/01:00pm 26.8 NE 16 24 1007.0 - 0.0 - - - - - - -
23/12:30pm 27.2 NE 13 20 1007.6 - 0.0 - - - - - - -
23/12:00pm 27.2 NE 12 18 1008.3 - 0.0 - - - - - - -
23/11:30am 26.7 NE 11 17 1008.6 - 0.0 - - - - - - -
23/11:00am 26.0 NE 11 16 1009.0 - 0.0 - - - - - - -
23/10:30am 26.8 NE 9 14 1009.3 - 0.0 - - - - - - -
23/10:00am 25.4 N 5 11 1009.8 - 0.0 - - - - - - -
23/09:30am 24.2 NW 4 6 1010.1 - 0.0 - - - - - - -
23/09:00am 23.6 NW 4 6 1010.5 - 0.0 - - - - - - -
23/08:30am 22.4 NNW 4 8 1011.0 - 0.0 - - - - - - -
23/08:00am 20.4 NW 4 6 1011.2 - 0.0 - - - - - - -
23/07:30am 20.0 NW 5 7 1011.2 - 0.0 - - - - - - -
23/07:00am 19.2 NW 6 7 1011.2 - 0.0 - - - - - - -
23/06:30am 18.8 NW 6 8 1011.1 - 0.0 - - - - - - -
23/06:00am 18.5 NW 5 7 1011.0 - 0.0 - - - - - - -
23/05:30am 18.2 CALM 0 0 1011.3 - 0.0 - - - - - - -
23/05:00am 17.5 WNW 2 5 1011.4 - 0.0 - - - - - - -
23/04:30am 17.6 CALM 0 5 1011.4 - 0.0 - - - - - - -
23/04:00am 18.1 NW 4 6 1011.7 - 0.0 - - - - - - -
23/03:30am 18.6 CALM 0 0 1012.0 - 0.0 - - - - - - -
23/03:00am 19.4 CALM 0 0 1012.1 - 0.0 - - - - - - -
23/02:30am 18.9 CALM 0 0 1012.6 - 0.0 - - - - - - -
23/02:00am 18.8 CALM 0 0 1013.1 - 0.0 - - - - - - -
23/01:30am 18.5 CALM 0 0 1013.3 - 0.0 - - - - - - -
23/01:00am 18.0 CALM 0 0 1013.9 - 0.0 - - - - - - -
23/12:30am 18.8 CALM 0 4 1014.2 - 0.0 - - - - - - -
23/12:00am 19.8 NNW 4 7 1014.6 - 0.0 - - - - - - -
 
Date/Time
EDT
Temp
°C
Wind Pressure Rain since
9am
mm
Weather Cloud Vis
km
Sea
Height
m
Swell
Dir  Spd
kts
Gust
kts
hPa Trend Height
m
Period
s
Dir
22/11:30pm 20.0 N 5 7 1014.8 - 0.0 - - - - - - -
22/11:00pm 20.2 N 4 7 1015.1 - 0.0 - - - - - - -
22/10:30pm 20.5 N 5 8 1015.2 - 0.0 - - - - - - -
22/10:00pm 21.0 N 5 9 1015.2 - 0.0 - - - - - - -
22/09:30pm 21.1 NNE 5 10 1015.2 - 0.0 - - - - - - -
22/09:00pm 21.2 NNE 6 11 1015.2 - 0.0 - - - - - - -
22/08:30pm 21.4 NNE 7 12 1015.1 - 0.0 - - - - - - -
22/08:00pm 21.7 NNE 8 14 1015.0 - 0.0 - - - - - - -
22/07:30pm 22.0 NE 9 14 1014.9 - 0.0 - - - - - - -
22/07:00pm 22.5 NNE 8 14 1014.8 - 0.0 - - - - - - -
22/06:30pm 22.8 NNE 9 16 1014.5 - 0.0 - - - - - - -
22/06:00pm 23.4 NE 10 14 1014.5 - 0.0 - - - - - - -
22/05:30pm 23.5 NE 10 16 1014.6 - 0.0 - - - - - - -
22/05:00pm 23.9 NE 10 18 1014.8 - 0.0 - - - - - - -
22/04:30pm 23.7 NE 9 16 1015.0 - 0.0 - - - - - - -
22/04:00pm 24.1 NE 10 17 1014.9 - 0.0 - - - - - - -
22/03:30pm 24.1 NE 11 16 1014.9 - 0.0 - - - - - - -
22/03:00pm 24.8 ENE 10 17 1015.1 - 0.0 - - - - - - -
22/02:30pm 24.4 ENE 9 14 1015.2 - 0.0 - - - - - - -
22/02:00pm 23.9 ENE 11 16 1015.3 - 0.0 - - - - - - -
22/01:30pm 23.9 ENE 10 15 1015.6 - 0.0 - - - - - - -
22/01:00pm 23.8 E 11 16 1015.8 - 0.0 - - - - - - -
22/12:30pm 23.6 ENE 11 16 1016.0 - 0.0 - - - - - - -
22/12:00pm 23.6 E 8 14 1016.3 - 0.0 - - - - - - -
22/11:30am 22.6 E 10 15 1016.6 - 0.0 - - - - - - -
22/11:00am 22.2 E 9 14 1016.8 - 0.0 - - - - - - -
22/10:30am 21.7 E 10 13 1016.9 - 0.0 - - - - - - -
22/10:00am 21.4 E 8 11 1017.1 - 0.0 - - - - - - -
22/09:30am 21.5 E 7 10 1017.4 - 0.0 - - - - - - -
22/09:00am 20.5 E 5 7 1017.8 - 0.0 - - - - - - -
22/08:30am 18.6 CALM 0 0 1017.9 - 0.0 - - - - - - -
22/08:00am 16.5 CALM 0 0 1017.9 - 0.0 - - - - - - -
22/07:30am 15.4 CALM 0 0 1017.7 - 0.0 - - - - - - -
22/07:00am 13.7 CALM 0 0 1017.5 - 0.0 - - - - - - -
22/06:30am 12.4 CALM 0 0 1017.5 - 0.0 - - - - - - -
22/06:00am 12.9 CALM 0 0 1017.2 - 0.0 - - - - - - -
22/05:30am 13.1 CALM 0 0 1017.0 - 0.0 - - - - - - -
22/05:00am 13.5 CALM 0 0 1016.7 - 0.0 - - - - - - -
22/04:30am 14.0 CALM 0 0 1016.5 - 0.0 - - - - - - -
22/04:00am 14.3 CALM 0 0 1016.4 - 0.0 - - - - - - -
22/03:30am 14.5 CALM 0 0 1016.5 - 0.0 - - - - - - -
22/03:00am 14.3 CALM 0 0 1016.7 - 0.0 - - - - - - -
22/02:30am 13.8 CALM 0 0 1016.8 - 0.0 - - - - - - -
22/02:00am 13.1 CALM 0 0 1016.9 - 0.0 - - - - - - -
22/01:30am 11.9 CALM 0 0 1017.0 - 0.0 - - - - - - -
22/01:00am 12.3 CALM 0 0 1017.1 - 0.0 - - - - - - -
22/12:30am 13.1 CALM 0 0 1017.1 - 0.0 - - - - - - -
22/12:00am 14.0 CALM 0 0 1017.1 - 0.0 - - - - - - -
 
Date/Time
EDT
Temp
°C
Wind Pressure Rain since
9am
mm
Weather Cloud Vis
km
Sea
Height
m
Swell
Dir  Spd
kts
Gust
kts
hPa Trend Height
m
Period
s
Dir
21/11:30pm 15.2 S 3 4 1017.0 - 0.0 - - - - - - -
21/11:00pm 16.4 S 7 9 1016.8 - 0.0 - - - - - - -
21/10:30pm 17.4 SSE 8 11 1016.8 - 0.0 - - - - - - -
21/10:00pm 17.2 SE 4 7 1016.9 - 0.0 - - - - - - -
21/09:30pm 18.4 S 8 11 1016.4 - 0.0 - - - - - - -
21/09:00pm 19.0 SSE 8 11 1015.9 - 0.0 - - - - - - -
21/08:30pm 19.6 S 7 13 1015.3 - 0.0 - - - - - - -
21/08:00pm 20.8 S 10 15 1014.7 - 0.0 - - - - - - -
21/07:30pm 22.5 S 9 15 1014.3 - 0.0 - - - - - - -
21/07:00pm 23.4 S 12 19 1013.6 - 0.0 - - - - - - -
21/06:30pm 24.5 S 12 21 1012.8 - 0.0 - - - - - - -
21/06:00pm 24.7 SSW 14 23 1012.3 - 0.0 - - - - - - -
21/05:30pm 25.5 S 15 23 1011.9 - 0.0 - - - - - - -
21/05:00pm 26.2 S 13 19 1011.7 - 0.0 - - - - - - -
21/04:30pm 26.5 S 13 18 1011.5 - 0.0 - - - - - - -
21/04:00pm 26.8 S 12 18 1011.4 - 0.0 - - - - - - -
21/03:30pm 26.9 SSW 12 18 1011.2 - 0.0 - - - - - - -
21/03:00pm 26.9 SSW 11 20 1011.3 - 0.0 - - - - - - -
21/02:30pm 25.9 S 13 19 1011.3 - 0.0 - - - - - - -
21/02:00pm 26.0 S 10 18 1011.5 - 0.0 - - - - - - -
21/01:30pm 24.6 SSW 12 20 1011.5 - 0.0 - - - - - - -
21/01:00pm 25.0 S 11 18 1011.6 - 0.0 - - - - - - -
21/12:30pm 23.8 SSW 10 17 1011.9 - 0.0 - - - - - - -
21/12:00pm 22.8 S 11 17 1011.9 - 0.0 - - - - - - -
21/11:30am 22.9 SSW 10 16 1012.1 - 0.0 - - - - - - -
21/11:00am 22.6 SW 9 15 1011.9 - 0.0 - - - - - - -
21/10:30am 21.4 SW 10 15 1011.7 - 0.0 - - - - - - -
21/10:00am 20.7 SSW 10 17 1011.8 - 0.0 - - - - - - -
21/09:30am 20.4 SW 8 14 1011.5 - 0.0 - - - - - - -
21/09:00am 20.1 WSW 8 14 1011.4 - 1.0 - - - - - - -
21/08:30am 18.8 WSW 8 13 1011.3 - 1.0 - - - - - - -
21/08:00am 17.8 SW 11 20 1011.1 - 1.0 - - - - - - -

Other Formats:

Comma delimited format used in spreadsheet applications
http://www.bom.gov.au/fwo/IDN60701/IDN60701.95929.axf

JavaScript Object Notation format (JSON) in row-major order
http://www.bom.gov.au/fwo/IDN60701/IDN60701.95929.json